Time;durP1;ratioP1;P1;durP2;ratioP2;P2;SDS_P1;SDS_P2;PMS_P1;PMS_P2;Temp;Humidity;BMP_temperature;BMP_pressure;BME280_temperature;BME280_humidity;BME280_pressure;Samples;Min_cycle;Max_cycle;Signal;HPM_P1;HPM_P2
2021/01/03 00:00:30;;;;;;;58.03;36.87;;;1.10;99.90;;;;;;4900500;28;20718;-73
2021/01/03 00:02:53;;;;;;;51.43;34.00;;;1.20;99.90;;;;;;4917038;28;20176;-72
2021/01/03 00:05:17;;;;;;;55.20;36.20;;;1.10;99.90;;;;;;4915089;28;20280;-72
2021/01/03 00:07:40;;;;;;;59.10;36.00;;;1.20;99.90;;;;;;4897880;28;20216;-73
2021/01/03 00:10:06;;;;;;;59.10;37.80;;;1.20;99.90;;;;;;4897626;28;20712;-71
2021/01/03 00:12:28;;;;;;;66.60;41.23;;;1.20;99.90;;;;;;4915253;28;20184;-72
2021/01/03 00:14:50;;;;;;;59.27;37.57;;;1.20;99.90;;;;;;4917454;28;20241;-72
2021/01/03 00:17:12;;;;;;;70.77;42.17;;;1.20;99.90;;;;;;4915943;28;20536;-72
2021/01/03 00:19:34;;;;;;;64.47;40.23;;;1.10;99.90;;;;;;4915012;28;20211;-72
2021/01/03 00:21:56;;;;;;;68.00;43.80;;;1.30;99.90;;;;;;4902884;28;20251;-73
2021/01/03 00:24:20;;;;;;;64.40;39.97;;;1.20;99.90;;;;;;4895385;28;20200;-72
2021/01/03 00:26:42;;;;;;;71.27;44.53;;;1.30;99.90;;;;;;4908432;28;20216;-72
2021/01/03 00:29:04;;;;;;;70.87;44.43;;;1.30;99.90;;;;;;4916679;28;21109;-74
2021/01/03 00:31:26;;;;;;;68.10;42.03;;;1.20;99.90;;;;;;4908438;28;20617;-73
2021/01/03 00:33:48;;;;;;;63.33;42.23;;;1.30;99.90;;;;;;4895188;28;20204;-72
2021/01/03 00:36:12;;;;;;;67.73;42.00;;;1.30;99.90;;;;;;4902543;28;20653;-73
2021/01/03 00:38:34;;;;;;;68.67;43.00;;;1.30;99.90;;;;;;4916916;28;20593;-73
2021/01/03 00:40:57;;;;;;;68.77;41.23;;;1.30;99.90;;;;;;4900807;28;20205;-75
2021/01/03 00:43:20;;;;;;;61.90;39.30;;;3.30;99.90;;;;;;4895109;28;20625;-72
2021/01/03 00:45:42;;;;;;;64.20;41.20;;;1.30;99.90;;;;;;4897245;28;20184;-73
2021/01/03 00:48:06;;;;;;;63.17;40.50;;;1.30;99.90;;;;;;4915100;28;20226;-73
2021/01/03 00:50:28;;;;;;;63.17;41.33;;;1.30;99.90;;;;;;4916747;28;20739;-73
2021/01/03 00:52:50;;;;;;;63.87;40.17;;;1.30;99.90;;;;;;4897427;28;20627;-72
2021/01/03 00:55:13;;;;;;;65.07;40.33;;;1.30;99.90;;;;;;4897114;28;21142;-73
2021/01/03 00:57:37;;;;;;;61.50;39.73;;;1.20;99.90;;;;;;4912374;28;20200;-73
2021/01/03 00:59:59;;;;;;;58.87;37.87;;;1.30;99.90;;;;;;4915467;28;20200;-74
2021/01/03 01:02:21;;;;;;;61.40;40.33;;;1.30;99.90;;;;;;4901705;28;20242;-73
2021/01/03 01:04:43;;;;;;;68.20;40.77;;;1.30;99.90;;;;;;4879006;28;20244;-73
2021/01/03 01:07:06;;;;;;;65.27;41.83;;;1.30;99.90;;;;;;4897808;28;20220;-73
2021/01/03 01:09:28;;;;;;;62.23;40.07;;;1.30;99.90;;;;;;4879215;28;20577;-73
2021/01/03 01:11:53;;;;;;;68.67;43.77;;;1.40;99.90;;;;;;4914593;28;21150;-73
2021/01/03 01:14:16;;;;;;;73.27;46.00;;;1.30;99.90;;;;;;4916940;28;20546;-73
2021/01/03 01:16:38;;;;;;;75.27;44.67;;;1.30;99.90;;;;;;4909093;28;20193;-73
2021/01/03 01:19:01;;;;;;;65.47;40.90;;;1.40;99.90;;;;;;4897500;28;20214;-73
2021/01/03 01:21:23;;;;;;;74.97;46.07;;;1.40;99.90;;;;;;4895769;28;20689;-74
2021/01/03 01:23:45;;;;;;;71.37;46.20;;;1.40;99.90;;;;;;4900260;28;20199;-73
2021/01/03 01:26:07;;;;;;;68.77;44.50;;;1.50;99.90;;;;;;4914444;28;20215;-72
2021/01/03 01:28:29;;;;;;;68.03;43.13;;;1.40;99.90;;;;;;4914548;28;20297;-73
2021/01/03 01:30:52;;;;;;;65.33;41.60;;;1.50;99.90;;;;;;4916800;28;20222;-72
2021/01/03 01:33:14;;;;;;;69.37;43.80;;;1.30;99.90;;;;;;4916110;28;20188;-75
2021/01/03 01:35:36;;;;;;;62.77;41.53;;;1.50;99.90;;;;;;4915360;28;20229;-73
2021/01/03 01:37:59;;;;;;;64.17;40.93;;;1.40;99.90;;;;;;4901782;28;20189;-74
2021/01/03 01:40:24;;;;;;;65.57;40.67;;;1.30;99.90;;;;;;4897169;28;20250;-72
2021/01/03 01:42:46;;;;;;;59.10;37.87;;;1.50;99.90;;;;;;4906156;28;20621;-73
2021/01/03 01:45:11;;;;;;;61.87;40.33;;;1.50;99.90;;;;;;4914527;28;20614;-73
2021/01/03 01:47:38;;;;;;;62.93;39.03;;;1.40;99.90;;;;;;4906487;28;20980;-73
2021/01/03 01:50:04;;;;;;;62.17;40.47;;;1.50;99.90;;;;;;4907484;28;20647;-73
2021/01/03 01:52:32;;;;;;;66.50;41.43;;;1.50;99.90;;;;;;4915522;28;20705;-72
2021/01/03 01:54:59;;;;;;;62.20;40.13;;;1.60;99.90;;;;;;4914783;28;20226;-73
2021/01/03 01:57:27;;;;;;;66.03;42.40;;;1.60;99.90;;;;;;4909283;28;20703;-73
2021/01/03 01:59:58;;;;;;;64.20;39.23;;;1.60;99.90;;;;;;4894925;28;20257;-72
2021/01/03 02:02:24;;;;;;;67.03;42.77;;;1.60;99.90;;;;;;4910372;28;20537;-72
2021/01/03 02:04:53;;;;;;;68.30;42.87;;;1.60;99.90;;;;;;4916279;28;20184;-74
2021/01/03 02:07:22;;;;;;;62.23;39.37;;;1.50;99.90;;;;;;4911567;28;20561;-72
2021/01/03 02:09:57;;;;;;;63.70;40.97;;;1.70;99.90;;;;;;4896367;28;20189;-74
2021/01/03 02:12:25;;;;;;;64.00;40.37;;;1.60;99.90;;;;;;4900140;28;20172;-73
2021/01/03 02:14:47;;;;;;;66.33;40.23;;;1.60;99.90;;;;;;4913871;28;20292;-73
2021/01/03 02:17:09;;;;;;;58.43;37.23;;;1.60;99.90;;;;;;4913985;28;20253;-73
2021/01/03 02:19:33;;;;;;;67.13;39.77;;;1.60;99.90;;;;;;4915365;28;20181;-74
2021/01/03 02:22:02;;;;;;;65.80;39.33;;;1.50;99.90;;;;;;4913963;28;20196;-72
2021/01/03 02:24:32;;;;;;;68.67;40.27;;;1.50;99.90;;;;;;4896212;28;20244;-73
2021/01/03 02:27:01;;;;;;;66.30;40.27;;;1.40;99.90;;;;;;4896089;28;20217;-73
2021/01/03 02:29:25;;;;;;;55.27;34.53;;;1.50;99.90;;;;;;4914394;28;20586;-73
2021/01/03 02:31:50;;;;;;;50.37;33.03;;;1.50;99.90;;;;;;4912290;28;20200;-72
2021/01/03 02:34:25;;;;;;;58.93;37.57;;;1.50;99.90;;;;;;4914661;28;20184;-73
2021/01/03 02:36:51;;;;;;;63.33;38.63;;;1.60;99.90;;;;;;4902041;28;20184;-72
2021/01/03 02:39:21;;;;;;;59.47;35.30;;;1.60;99.90;;;;;;4909545;28;20204;-79
2021/01/03 02:41:43;;;;;;;60.47;37.13;;;1.60;99.90;;;;;;4912457;28;20188;-72
2021/01/03 02:44:07;;;;;;;59.80;37.00;;;1.60;99.90;;;;;;4896191;28;20654;-73
2021/01/03 02:46:30;;;;;;;59.13;35.97;;;1.50;99.90;;;;;;4912105;28;20204;-73
2021/01/03 02:48:52;;;;;;;55.13;35.87;;;1.50;99.90;;;;;;4895025;28;20226;-73
2021/01/03 02:51:14;;;;;;;57.20;35.83;;;1.50;99.90;;;;;;4905477;28;20329;-74
2021/01/03 02:53:36;;;;;;;57.40;36.53;;;1.50;99.90;;;;;;4911933;28;20220;-72
2021/01/03 02:55:59;;;;;;;54.67;35.97;;;1.40;99.90;;;;;;4914294;28;20248;-73
2021/01/03 02:58:21;;;;;;;55.67;36.40;;;1.40;99.90;;;;;;4915358;28;20184;-73
2021/01/03 03:00:44;;;;;;;53.33;34.07;;;1.30;99.90;;;;;;4912313;28;20180;-73
2021/01/03 03:03:08;;;;;;;49.07;32.90;;;1.30;99.90;;;;;;4914129;28;21077;-73
2021/01/03 03:05:31;;;;;;;57.00;34.93;;;1.30;99.90;;;;;;4911314;28;20779;-73
2021/01/03 03:07:53;;;;;;;52.13;33.57;;;1.30;99.90;;;;;;4895731;28;20254;-73
2021/01/03 03:10:16;;;;;;;55.43;34.20;;;1.20;99.90;;;;;;4901374;28;20257;-73
2021/01/03 03:12:38;;;;;;;53.63;34.80;;;1.20;99.90;;;;;;4915223;28;20245;-72
2021/01/03 03:15:01;;;;;;;58.73;36.90;;;1.10;99.90;;;;;;4912993;28;20217;-73
2021/01/03 03:17:24;;;;;;;58.90;35.43;;;1.10;99.90;;;;;;4914247;28;20661;-73
2021/01/03 03:19:46;;;;;;;59.13;36.73;;;1.00;99.90;;;;;;4908083;28;20205;-73
2021/01/03 03:22:08;;;;;;;54.70;34.47;;;1.00;99.90;;;;;;4895080;28;20181;-73
2021/01/03 03:24:30;;;;;;;57.50;35.07;;;0.80;99.90;;;;;;4897574;28;20651;-73
2021/01/03 03:26:53;;;;;;;54.47;33.70;;;0.80;99.90;;;;;;4915199;28;20268;-73
2021/01/03 03:29:15;;;;;;;56.80;33.40;;;0.70;99.90;;;;;;4915193;28;20597;-73
2021/01/03 03:31:37;;;;;;;56.23;33.73;;;0.70;99.90;;;;;;4895059;28;20301;-72
2021/01/03 03:34:00;;;;;;;51.03;32.50;;;0.50;99.90;;;;;;4897577;28;20196;-73
2021/01/03 03:36:22;;;;;;;49.77;31.77;;;0.60;99.90;;;;;;4914951;28;20601;-73
2021/01/03 03:38:44;;;;;;;55.10;32.73;;;0.60;99.90;;;;;;4919162;28;20593;-73
2021/01/03 03:41:07;;;;;;;60.40;35.70;;;0.50;99.90;;;;;;4911424;28;20677;-73
2021/01/03 03:43:29;;;;;;;53.63;35.10;;;0.30;99.90;;;;;;4916876;28;20654;-74
2021/01/03 03:45:51;;;;;;;61.50;36.53;;;0.40;99.90;;;;;;4917872;28;20551;-72
2021/01/03 03:48:13;;;;;;;57.70;34.67;;;0.40;99.90;;;;;;4917012;28;20640;-72
2021/01/03 03:50:36;;;;;;;56.17;33.90;;;0.40;99.90;;;;;;4910697;28;20625;-73
2021/01/03 03:52:58;;;;;;;60.77;37.43;;;0.30;99.90;;;;;;4896535;28;20223;-73
2021/01/03 03:55:20;;;;;;;61.10;38.90;;;0.40;99.90;;;;;;4901023;28;20238;-72
2021/01/03 03:57:43;;;;;;;62.87;39.73;;;0.30;99.90;;;;;;4918248;28;20180;-72
2021/01/03 04:00:07;;;;;;;63.47;39.23;;;0.40;99.90;;;;;;4915994;28;20589;-75
2021/01/03 04:02:34;;;;;;;58.47;38.87;;;0.30;99.90;;;;;;4895504;28;20189;-73
2021/01/03 04:04:56;;;;;;;61.40;38.07;;;0.40;99.90;;;;;;4897097;28;20193;-73
2021/01/03 04:07:19;;;;;;;62.53;41.43;;;0.30;99.90;;;;;;4881814;28;20767;-73
2021/01/03 04:09:41;;;;;;;60.23;38.33;;;0.30;99.90;;;;;;4906998;28;20243;-73
2021/01/03 04:12:03;;;;;;;61.17;39.03;;;1.00;99.90;;;;;;4906112;28;20702;-77
2021/01/03 04:14:45;;;;;;;66.60;40.03;;;0.50;99.90;;;;;;4897176;28;20593;-74
2021/01/03 04:17:27;;;;;;;67.43;40.60;;;0.40;99.90;;;;;;4908952;28;20938;-72
2021/01/03 04:20:16;;;;;;;64.03;39.20;;;0.50;99.90;;;;;;4917172;28;20591;-73
2021/01/03 04:22:59;;;;;;;62.20;38.27;;;0.50;99.90;;;;;;4917211;28;20608;-73
2021/01/03 04:25:22;;;;;;;68.33;42.60;;;0.60;99.90;;;;;;4933305;28;20695;-73
2021/01/03 04:28:05;;;;;;;76.07;46.37;;;0.70;99.90;;;;;;4915918;28;20208;-82
2021/01/03 04:30:47;;;;;;;67.53;42.27;;;0.70;99.90;;;;;;4917826;28;20607;-73
2021/01/03 04:33:09;;;;;;;66.97;43.27;;;0.80;99.90;;;;;;4900741;28;20235;-72
2021/01/03 04:35:31;;;;;;;63.97;41.77;;;0.80;99.90;;;;;;4896029;28;20201;-73
2021/01/03 04:37:55;;;;;;;64.00;41.03;;;0.80;99.90;;;;;;4910284;28;20183;-73
2021/01/03 04:40:22;;;;;;;67.67;42.43;;;0.90;99.90;;;;;;4917895;28;20687;-74
2021/01/03 04:42:45;;;;;;;63.17;41.33;;;0.70;99.90;;;;;;4914399;28;20245;-73
2021/01/03 04:45:18;;;;;;;66.80;41.57;;;0.90;99.90;;;;;;4915798;28;20192;-73
2021/01/03 04:47:51;;;;;;;67.93;43.70;;;0.90;99.90;;;;;;4914480;28;20304;-73
2021/01/03 04:50:26;;;;;;;66.47;42.27;;;1.00;99.90;;;;;;4914274;28;20188;-73
2021/01/03 04:53:11;;;;;;;64.83;41.80;;;1.00;99.90;;;;;;4898027;28;20223;-72
2021/01/03 04:55:38;;;;;;;66.03;41.63;;;1.00;99.90;;;;;;4897419;28;20548;-72
2021/01/03 04:58:11;;;;;;;59.80;40.20;;;1.00;99.90;;;;;;4897631;28;20985;-72
2021/01/03 05:00:37;;;;;;;64.17;40.80;;;1.00;99.90;;;;;;4894625;28;20196;-73
2021/01/03 05:03:41;;;;;;;65.43;41.60;;;1.10;99.90;;;;;;4896186;28;20265;-73
2021/01/03 05:06:07;;;;;;;64.17;41.17;;;1.10;99.90;;;;;;4867904;28;20204;-76
2021/01/03 05:08:35;;;;;;;65.80;41.43;;;1.10;99.90;;;;;;4897840;28;20216;-73
2021/01/03 05:11:02;;;;;;;64.27;40.23;;;1.20;99.90;;;;;;4906338;28;20778;-73
2021/01/03 05:13:38;;;;;;;66.93;40.73;;;1.20;99.90;;;;;;4915532;28;20340;-73
2021/01/03 05:16:00;;;;;;;63.90;41.57;;;1.20;99.90;;;;;;4915277;28;20262;-73
2021/01/03 05:18:22;;;;;;;63.70;40.13;;;1.20;99.90;;;;;;4897704;28;20639;-73
2021/01/03 05:20:53;;;;;;;61.00;39.53;;;1.20;99.90;;;;;;4915095;28;20221;-73
2021/01/03 05:23:19;;;;;;;61.20;38.77;;;1.30;99.90;;;;;;4916244;28;20200;-76
2021/01/03 05:25:43;;;;;;;63.67;38.57;;;1.30;99.90;;;;;;4916027;28;20670;-73
2021/01/03 05:28:19;;;;;;;61.07;38.37;;;1.30;99.90;;;;;;4904852;28;20717;-74
2021/01/03 05:30:41;;;;;;;59.93;38.90;;;1.40;99.90;;;;;;4897519;28;20172;-73
2021/01/03 05:33:09;;;;;;;57.27;38.87;;;1.40;99.90;;;;;;4907147;28;20233;-80
2021/01/03 05:35:37;;;;;;;65.13;38.80;;;1.40;99.90;;;;;;4908759;28;20200;-72
2021/01/03 05:38:00;;;;;;;65.87;41.70;;;1.40;99.90;;;;;;4894962;28;20286;-72
2021/01/03 05:40:30;;;;;;;62.97;38.10;;;1.40;99.90;;;;;;4882178;28;20672;-76
2021/01/03 05:43:04;;;;;;;79.80;49.03;;;1.50;99.90;;;;;;4916473;28;20188;-72
2021/01/03 05:45:28;;;;;;;75.70;48.17;;;1.50;99.90;;;;;;4911417;28;20690;-72
2021/01/03 05:47:57;;;;;;;51.47;31.60;;;1.40;99.90;;;;;;4896560;28;20212;-75
2021/01/03 05:50:32;;;;;;;49.97;32.13;;;1.40;99.90;;;;;;4911589;28;21803;-72
2021/01/03 05:52:58;;;;;;;52.30;32.47;;;1.50;99.90;;;;;;4915338;28;20630;-73
2021/01/03 05:55:25;;;;;;;55.57;34.67;;;1.40;99.90;;;;;;4895948;28;20251;-75
2021/01/03 05:57:47;;;;;;;56.00;33.37;;;1.60;99.90;;;;;;4896809;28;20264;-73
2021/01/03 06:00:17;;;;;;;52.53;32.40;;;1.60;99.00;;;;;;4910646;28;20176;-73
2021/01/03 06:02:40;;;;;;;54.20;34.07;;;1.60;97.40;;;;;;4915468;28;20176;-73
2021/01/03 06:05:05;;;;;;;54.10;33.50;;;1.60;97.80;;;;;;4913709;28;20200;-72
2021/01/03 06:07:29;;;;;;;51.47;32.87;;;1.50;99.90;;;;;;4914379;28;20220;-73
2021/01/03 06:09:51;;;;;;;45.73;29.60;;;1.50;99.70;;;;;;4931180;28;20240;-72
2021/01/03 06:12:19;;;;;;;41.83;29.60;;;1.60;99.80;;;;;;4914761;28;20187;-72
2021/01/03 06:14:42;;;;;;;46.00;31.40;;;1.50;99.90;;;;;;4914600;28;20552;-73
2021/01/03 06:17:13;;;;;;;42.60;28.60;;;1.60;99.90;;;;;;4915912;28;20642;-73
2021/01/03 06:19:42;;;;;;;45.87;29.70;;;1.60;99.90;;;;;;4904882;28;20792;-73
2021/01/03 06:22:13;;;;;;;41.90;29.67;;;1.60;99.90;;;;;;4877543;28;20638;-74
2021/01/03 06:24:39;;;;;;;52.23;33.03;;;1.60;99.90;;;;;;4905154;28;20241;-73
2021/01/03 06:27:03;;;;;;;53.57;33.30;;;1.40;99.90;;;;;;4914609;28;20625;-73
2021/01/03 06:29:31;;;;;;;46.73;30.93;;;1.50;99.90;;;;;;4914006;28;20766;-73
2021/01/03 06:32:22;;;;;;;49.43;31.90;;;1.50;99.90;;;;;;4913528;28;20272;-72
2021/01/03 06:34:52;;;;;;;43.47;28.87;;;1.50;99.90;;;;;;4913499;28;20581;-72
2021/01/03 06:37:22;;;;;;;39.93;27.27;;;1.50;99.90;;;;;;4895813;28;20227;-73
2021/01/03 06:39:53;;;;;;;39.80;27.27;;;1.50;99.90;;;;;;4904564;28;20245;-75
2021/01/03 06:42:51;;;;;;;42.90;29.03;;;1.50;99.90;;;;;;4914509;28;20188;-74
2021/01/03 06:45:40;;;;;;;59.87;37.07;;;1.50;99.90;;;;;;4882650;28;20673;-75
2021/01/03 06:48:40;;;;;;;56.87;37.00;;;1.50;99.90;;;;;;4883862;28;20240;-73
2021/01/03 06:51:32;;;;;;;49.10;32.67;;;1.60;99.90;;;;;;4894653;28;20204;-73
2021/01/03 06:54:34;;;;;;;47.40;31.80;;;1.50;99.90;;;;;;4908180;28;20697;-72
2021/01/03 06:57:34;;;;;;;43.67;27.90;;;1.60;99.90;;;;;;4899683;28;20234;-77
2021/01/03 07:00:14;;;;;;;39.60;26.70;;;1.70;99.90;;;;;;4894607;28;20196;-72
2021/01/03 07:02:43;;;;;;;38.63;26.00;;;1.70;99.90;;;;;;4905547;28;20191;-73
2021/01/03 07:05:07;;;;;;;37.13;26.40;;;1.80;99.90;;;;;;4913149;28;20196;-73
2021/01/03 07:07:30;;;;;;;41.67;28.47;;;1.80;99.90;;;;;;4914644;28;20230;-72
2021/01/03 07:10:00;;;;;;;56.87;32.90;;;1.80;99.90;;;;;;4909855;28;20226;-73
2021/01/03 07:12:35;;;;;;;56.83;32.53;;;1.80;99.90;;;;;;4914873;28;20213;-72
2021/01/03 07:14:57;;;;;;;50.90;30.93;;;1.90;99.90;;;;;;4914316;28;20649;-78
2021/01/03 07:17:26;;;;;;;42.37;26.13;;;1.90;99.90;;;;;;4914932;28;20183;-72
2021/01/03 07:19:52;;;;;;;34.53;23.43;;;1.90;99.90;;;;;;4909645;28;20188;-73
2021/01/03 07:22:21;;;;;;;47.03;27.17;;;2.00;97.40;;;;;;4895278;28;20203;-73
2021/01/03 07:25:15;;;;;;;54.33;28.73;;;2.00;95.40;;;;;;4896657;28;20184;-73
2021/01/03 07:27:39;;;;;;;43.93;25.57;;;2.00;95.70;;;;;;4895528;28;20217;-72
2021/01/03 07:30:38;;;;;;;37.03;24.03;;;2.10;95.20;;;;;;4904492;28;20242;-72
2021/01/03 07:33:27;;;;;;;35.37;22.43;;;2.10;94.00;;;;;;4914353;28;20168;-72
2021/01/03 07:35:49;;;;;;;38.00;22.77;;;2.10;97.40;;;;;;4897957;28;20204;-72
2021/01/03 07:38:30;;;;;;;57.63;32.13;;;2.20;94.50;;;;;;4895482;28;20188;-72
2021/01/03 07:40:58;;;;;;;89.50;51.43;;;2.00;97.40;;;;;;4906044;28;20261;-72
2021/01/03 07:43:21;;;;;;;69.77;41.50;;;2.20;94.70;;;;;;4912298;28;20196;-73
2021/01/03 07:45:46;;;;;;;44.43;27.07;;;2.20;94.40;;;;;;4914194;28;20245;-76
2021/01/03 07:48:33;;;;;;;36.87;23.07;;;2.30;96.30;;;;;;4913171;28;20255;-73
2021/01/03 07:50:55;;;;;;;45.23;28.03;;;2.30;93.20;;;;;;4912976;28;20242;-72
2021/01/03 07:53:25;;;;;;;33.07;22.80;;;2.20;94.60;;;;;;4913230;28;20232;-72
2021/01/03 07:55:47;;;;;;;34.43;23.40;;;2.30;91.70;;;;;;4904645;28;20514;-73
2021/01/03 07:58:13;;;;;;;34.93;23.27;;;2.40;90.60;;;;;;4893845;28;20197;-73
2021/01/03 08:00:38;;;;;;;33.67;23.30;;;2.40;86.60;;;;;;4892592;28;20756;-72
2021/01/03 08:03:03;;;;;;;34.10;23.53;;;2.40;85.40;;;;;;4894895;28;20177;-72
2021/01/03 08:05:26;;;;;;;30.50;22.33;;;2.40;90.30;;;;;;4894217;28;20193;-73
2021/01/03 08:07:48;;;;;;;31.03;23.43;;;2.50;83.50;;;;;;4894243;28;20278;-72
2021/01/03 08:10:12;;;;;;;33.27;23.13;;;2.40;89.30;;;;;;4900551;28;20221;-73
2021/01/03 08:12:39;;;;;;;49.47;35.67;;;2.50;83.40;;;;;;4930461;28;20191;-72
2021/01/03 08:15:06;;;;;;;49.30;34.23;;;2.50;85.80;;;;;;4929154;28;20187;-73
2021/01/03 08:17:34;;;;;;;39.83;28.20;;;2.60;86.50;;;;;;4893039;28;20192;-72
2021/01/03 08:20:02;;;;;;;53.83;34.87;;;2.70;85.90;;;;;;4899057;28;20191;-74
2021/01/03 08:22:26;;;;;;;57.33;37.83;;;2.70;61.40;;;;;;4918395;28;20184;-73
2021/01/03 08:24:52;;;;;;;53.93;35.40;;;2.60;56.60;;;;;;4902152;28;20189;-72
2021/01/03 08:27:17;;;;;;;46.77;31.27;;;2.50;60.80;;;;;;4904936;28;20188;-73
2021/01/03 08:29:43;;;;;;;46.80;32.97;;;2.60;66.80;;;;;;4916508;28;20223;-73
2021/01/03 08:32:10;;;;;;;46.93;31.90;;;2.70;61.20;;;;;;4912567;28;20218;-73
2021/01/03 08:34:36;;;;;;;76.63;50.73;;;2.80;79.00;;;;;;4898351;28;20185;-72
2021/01/03 08:36:59;;;;;;;61.33;42.03;;;2.80;82.10;;;;;;4903443;28;20191;-72
2021/01/03 08:39:24;;;;;;;85.90;56.00;;;2.80;84.10;;;;;;4915850;28;20235;-73
2021/01/03 08:41:56;;;;;;;77.20;51.37;;;3.00;78.20;;;;;;4910748;28;20542;-74
2021/01/03 08:44:22;;;;;;;68.40;43.87;;;3.00;76.70;;;;;;4897907;28;20181;-73
2021/01/03 08:46:44;;;;;;;56.63;39.77;;;3.10;77.10;;;;;;4903596;28;20269;-73
2021/01/03 08:49:10;;;;;;;62.43;42.20;;;3.10;77.00;;;;;;4906683;28;20269;-73
2021/01/03 08:51:34;;;;;;;66.27;42.03;;;3.10;76.60;;;;;;4905745;28;20201;-74
2021/01/03 08:54:00;;;;;;;63.40;42.97;;;3.30;80.00;;;;;;4917536;28;20769;-73
2021/01/03 08:56:27;;;;;;;52.20;34.87;;;3.20;73.80;;;;;;4906230;28;20654;-73
2021/01/03 08:58:50;;;;;;;48.80;33.33;;;3.20;75.80;;;;;;4898678;28;20242;-75
2021/01/03 09:01:18;;;;;;;86.10;51.90;;;3.30;76.70;;;;;;4906086;28;20180;-73
2021/01/03 09:03:41;;;;;;;123.70;73.80;;;3.30;72.80;;;;;;4905154;28;20674;-73
2021/01/03 09:06:05;;;;;;;70.70;45.53;;;3.40;71.40;;;;;;4897815;28;20185;-75
2021/01/03 09:08:30;;;;;;;78.27;45.73;;;3.50;63.60;;;;;;4897150;28;20270;-72
2021/01/03 09:11:03;;;;;;;66.23;41.60;;;3.50;59.40;;;;;;4905353;28;20681;-73
2021/01/03 09:13:27;;;;;;;67.03;41.53;;;3.50;55.20;;;;;;4917187;28;20190;-73
2021/01/03 09:16:01;;;;;;;65.13;41.53;;;3.60;52.00;;;;;;4916905;28;20210;-72
2021/01/03 09:18:28;;;;;;;64.63;41.97;;;3.60;54.20;;;;;;4916626;28;20180;-73
2021/01/03 09:20:56;;;;;;;59.50;40.50;;;3.60;48.90;;;;;;4917140;28;20188;-73
2021/01/03 09:23:22;;;;;;;40.13;27.23;;;3.40;56.90;;;;;;4916069;28;20226;-72
2021/01/03 09:25:50;;;;;;;37.53;25.53;;;3.60;51.80;;;;;;4911680;28;20204;-72
2021/01/03 09:28:19;;;;;;;29.67;22.17;;;3.60;50.50;;;;;;4914609;28;20208;-72
2021/01/03 09:30:44;;;;;;;32.37;22.93;;;3.50;52.70;;;;;;4914319;28;20203;-72
2021/01/03 09:33:13;;;;;;;31.27;22.83;;;3.70;47.50;;;;;;4916650;28;20229;-73
2021/01/03 09:35:52;;;;;;;39.10;25.13;;;3.70;42.90;;;;;;4915076;28;20222;-72
2021/01/03 09:38:29;;;;;;;34.03;23.27;;;3.80;43.50;;;;;;4916422;28;20638;-72
2021/01/03 09:41:03;;;;;;;28.50;20.17;;;3.80;38.20;;;;;;4909640;28;20207;-72
2021/01/03 09:43:35;;;;;;;29.27;20.90;;;3.90;39.90;;;;;;4897139;28;20626;-72
2021/01/03 09:46:05;;;;;;;34.67;24.50;;;3.90;38.80;;;;;;4901335;28;20296;-72
2021/01/03 09:48:31;;;;;;;42.07;28.63;;;4.10;43.20;;;;;;4916285;28;20212;-73
2021/01/03 09:51:00;;;;;;;26.77;20.30;;;4.00;37.90;;;;;;4899653;28;20225;-72
2021/01/03 09:53:29;;;;;;;33.93;23.93;;;4.10;35.90;;;;;;4913705;28;20232;-72
2021/01/03 09:55:57;;;;;;;35.47;24.93;;;4.20;32.70;;;;;;4913672;28;20242;-73
2021/01/03 09:58:20;;;;;;;28.83;21.47;;;4.30;30.30;;;;;;4915535;28;20180;-73
2021/01/03 10:00:55;;;;;;;33.23;25.13;;;4.20;28.50;;;;;;4904340;28;20181;-73
2021/01/03 10:03:20;;;;;;;27.13;21.33;;;4.30;16.20;;;;;;4895382;28;20630;-73
2021/01/03 10:05:42;;;;;;;37.03;27.70;;;4.40;12.40;;;;;;4894501;28;20636;-74
2021/01/03 10:08:07;;;;;;;41.60;32.30;;;4.30;13.30;;;;;;4895699;28;20237;-75
2021/01/03 10:10:45;;;;;;;30.37;23.77;;;4.40;9.20;;;;;;4895245;28;20197;-72
2021/01/03 10:13:08;;;;;;;38.70;30.37;;;4.40;19.30;;;;;;4895681;28;20579;-73
2021/01/03 10:15:30;;;;;;;45.23;33.53;;;4.50;15.50;;;;;;4895480;28;20580;-73
2021/01/03 10:17:58;;;;;;;35.00;28.37;;;4.50;14.40;;;;;;4908837;28;20230;-72
2021/01/03 10:20:36;;;;;;;30.10;22.87;;;4.70;14.20;;;;;;4903243;28;20616;-72
2021/01/03 10:22:58;;;;;;;35.63;27.40;;;4.60;12.90;;;;;;4901075;28;20244;-73
2021/01/03 10:25:20;;;;;;;47.27;31.87;;;4.60;8.00;;;;;;4889340;28;20197;-74
2021/01/03 10:28:01;;;;;;;31.43;22.03;;;4.70;2.00;;;;;;4913763;28;20188;-73
2021/01/03 10:30:23;;;;;;;24.67;19.60;;;4.70;1.00;;;;;;4914579;28;20221;-82
2021/01/03 10:32:45;;;;;;;22.90;17.87;;;4.70;1.00;;;;;;4914792;28;20511;-81
2021/01/03 10:35:08;;;;;;;23.30;18.57;;;4.90;1.20;;;;;;4892622;28;20255;-75
2021/01/03 10:37:31;;;;;;;21.10;16.60;;;4.70;1.00;;;;;;4894689;28;20197;-83
2021/01/03 10:39:53;;;;;;;24.27;18.83;;;4.80;1.00;;;;;;4877232;28;20209;-75
2021/01/03 10:42:15;;;;;;;29.77;21.97;;;4.80;1.00;;;;;;4901261;28;20240;-81
2021/01/03 10:44:39;;;;;;;30.40;22.60;;;4.90;7.60;;;;;;4914860;28;20245;-85
2021/01/03 10:47:01;;;;;;;26.53;19.83;;;5.00;3.30;;;;;;4897361;28;20184;-75
2021/01/03 10:49:24;;;;;;;27.77;20.43;;;5.00;5.00;;;;;;4894964;28;20257;-73
2021/01/03 10:51:48;;;;;;;30.80;22.83;;;5.10;4.10;;;;;;4894243;28;20294;-79
2021/01/03 10:54:12;;;;;;;31.30;21.33;;;5.10;1.00;;;;;;4906079;28;20245;-78
2021/01/03 10:56:34;;;;;;;28.33;20.93;;;5.10;1.00;;;;;;4912102;28;20205;-82
2021/01/03 10:58:57;;;;;;;26.87;20.50;;;5.20;1.00;;;;;;4912790;28;20237;-74
2021/01/03 11:01:20;;;;;;;31.43;22.17;;;5.20;1.00;;;;;;4910883;28;20214;-74
2021/01/03 11:03:42;;;;;;;36.10;26.67;;;5.20;1.00;;;;;;4913105;28;20206;-79
2021/01/03 11:06:05;;;;;;;43.93;31.93;;;5.40;1.00;;;;;;4914287;28;20233;-83
2021/01/03 11:08:27;;;;;;;59.83;37.07;;;5.30;1.00;;;;;;4891352;28;20197;-79
2021/01/03 11:10:49;;;;;;;57.87;40.90;;;5.40;1.00;;;;;;4906328;28;20180;-78
2021/01/03 11:13:11;;;;;;;32.63;25.77;;;5.30;1.00;;;;;;4912068;28;20184;-82
2021/01/03 11:15:33;;;;;;;28.83;21.60;;;5.40;1.00;;;;;;4913844;28;20194;-79
2021/01/03 11:17:57;;;;;;;21.30;18.17;;;5.40;1.00;;;;;;4914710;28;20236;-83
2021/01/03 11:20:19;;;;;;;23.20;19.37;;;5.40;1.00;;;;;;4895859;28;20681;-82
2021/01/03 11:22:41;;;;;;;27.07;21.40;;;5.40;1.00;;;;;;4876764;28;20238;-75
2021/01/03 11:25:04;;;;;;;29.03;22.93;;;5.40;1.00;;;;;;4895299;28;20724;-79
2021/01/03 11:27:26;;;;;;;29.33;21.23;;;5.40;1.00;;;;;;4895008;28;20638;-83
2021/01/03 11:29:50;;;;;;;31.40;21.00;;;5.40;1.00;;;;;;4894758;28;20226;-80
2021/01/03 11:32:14;;;;;;;28.53;22.40;;;5.50;1.00;;;;;;4896789;28;20188;-73
2021/01/03 11:34:37;;;;;;;27.30;19.73;;;5.60;1.00;;;;;;4912377;28;20640;-72
2021/01/03 11:37:01;;;;;;;30.47;20.27;;;5.50;1.00;;;;;;4929514;28;20205;-73
2021/01/03 11:39:24;;;;;;;23.03;18.03;;;5.50;1.00;;;;;;4909472;28;20215;-73
2021/01/03 11:41:47;;;;;;;24.83;17.97;;;5.60;1.00;;;;;;4929302;28;20187;-73
2021/01/03 11:44:09;;;;;;;23.97;18.90;;;5.60;1.00;;;;;;4896885;28;20724;-73
2021/01/03 11:46:32;;;;;;;24.47;19.30;;;5.70;1.00;;;;;;4913748;28;20336;-73
2021/01/03 11:48:54;;;;;;;28.00;20.07;;;5.80;1.00;;;;;;4898565;28;20224;-83
2021/01/03 11:51:17;;;;;;;21.30;15.80;;;5.90;1.00;;;;;;4893008;28;20196;-73
2021/01/03 11:53:39;;;;;;;21.60;16.87;;;6.20;1.00;;;;;;4907575;28;20225;-82
2021/01/03 11:56:02;;;;;;;18.33;14.30;;;6.90;1.00;;;;;;4932774;28;20195;-73
2021/01/03 11:58:24;;;;;;;18.40;14.30;;;6.90;1.00;;;;;;4914773;28;20192;-78
2021/01/03 12:00:46;;;;;;;17.47;13.77;;;7.10;1.00;;;;;;4914059;28;20200;-79
2021/01/03 12:03:08;;;;;;;19.30;13.90;;;7.30;1.00;;;;;;4911343;28;20600;-74
2021/01/03 12:05:30;;;;;;;15.17;12.33;;;7.40;1.00;;;;;;4914994;28;20269;-77
2021/01/03 12:07:53;;;;;;;13.97;11.47;;;7.70;1.00;;;;;;4915895;28;20279;-72
2021/01/03 12:10:15;;;;;;;12.27;9.87;;;8.60;1.00;;;;;;4915405;28;20281;-74
2021/01/03 12:12:37;;;;;;;10.60;9.40;;;9.90;1.00;;;;;;4914363;28;20230;-72
2021/01/03 12:14:59;;;;;;;7.97;7.07;;;12.00;1.00;;;;;;4898858;28;20650;-75
2021/01/03 12:17:23;;;;;;;5.67;5.13;;;14.60;4.60;;;;;;4895302;28;20686;-74
2021/01/03 12:19:45;;;;;;;2.57;2.37;;;18.00;1.00;;;;;;4898065;28;20189;-74
2021/01/03 12:22:07;;;;;;;1.60;1.50;;;18.40;1.00;;;;;;4897561;28;20246;-74
2021/01/03 12:24:30;;;;;;;1.43;1.37;;;18.30;1.00;;;;;;4900329;28;20201;-75
2021/01/03 12:26:52;;;;;;;1.23;1.13;;;17.90;1.00;;;;;;4896312;28;20278;-77
2021/01/03 12:29:16;;;;;;;0.83;0.83;;;17.80;1.00;;;;;;4901601;28;20208;-81
2021/01/03 12:31:41;;;;;;;0.60;0.60;;;18.00;1.00;;;;;;4914987;28;20199;-82
2021/01/03 12:34:04;;;;;;;0.53;0.53;;;18.10;1.00;;;;;;4916609;28;20183;-84